Aviation Digital Data Service (ADDS)

Output produced by METARs form (1734 UTC 27 May 2017)
found at http://www.aviationweather.gov/adds/metars/
 
TAF TQPF 271728Z 2718/2818 10010KT 9999 SCT018 
     PROB30 
     TEMPO 2812/2818 SHRA